Time,TemperatureF,DewpointF,PressureIn,WindDirection,WindDirectionDegrees,WindSpeedMPH,WindSpeedGustMPH,Humidity,HourlyPrecipIn,Conditions,Clouds,dailyrainin,SoftwareType,DateUTC
2013-05-29 18:35:00,74.1,69.3,29.49,SSE,160,3.0,3.0,85,0.00,,,0.14,Wunderground v.1.15,2013-05-29 23:35:00,
2013-05-29 18:40:00,74.0,69.2,29.49,SE,142,3.0,3.0,85,0.00,,,0.14,Wunderground v.1.15,2013-05-29 23:40:00,
2013-05-29 18:45:00,74.0,69.2,29.49,SE,128,2.0,2.0,85,0.00,,,0.14,Wunderground v.1.15,2013-05-29 23:45:00,
2013-05-29 18:50:00,74.0,68.9,29.50,ESE,111,2.0,5.0,84,0.00,,,0.14,Wunderground v.1.15,2013-05-29 23:50:00,
2013-05-29 18:55:00,74.0,68.9,29.51,SE,145,2.0,6.0,84,0.00,,,0.14,Wunderground v.1.15,2013-05-29 23:55:00,
2013-05-29 19:00:00,74.1,69.0,29.51,SSE,155,3.0,3.0,84,0.00,,,0.14,Wunderground v.1.15,2013-05-30 00:00:00,
2013-05-29 19:05:00,74.1,69.0,29.51,West,262,3.0,10.0,84,0.00,,,0.14,Wunderground v.1.15,2013-05-30 00:05:00,
2013-05-29 19:10:00,74.2,68.7,29.51,North,350,3.0,3.0,83,0.00,,,0.14,Wunderground v.1.15,2013-05-30 00:10:00,
2013-05-29 19:15:00,74.3,68.8,29.51,SSW,210,3.0,10.0,83,0.00,,,0.14,Wunderground v.1.15,2013-05-30 00:15:00,
2013-05-29 19:20:00,74.4,68.5,29.52,ESE,113,3.0,3.0,82,0.00,,,0.14,Wunderground v.1.15,2013-05-30 00:20:00,
2013-05-29 19:25:00,74.5,68.6,29.51,South,179,3.0,5.0,82,0.00,,,0.14,Wunderground v.1.15,2013-05-30 00:25:00,
2013-05-29 19:30:00,74.6,68.4,29.52,NNW,340,3.0,3.0,81,0.00,,,0.14,Wunderground v.1.15,2013-05-30 00:30:00,
2013-05-29 19:35:00,74.2,65.8,29.56,West,274,4.0,4.0,75,0.00,,,0.14,Wunderground v.1.15,2013-05-30 00:35:00,
2013-05-29 19:40:00,69.8,63.0,29.58,West,276,4.0,10.0,79,4.00,,,0.21,Wunderground v.1.15,2013-05-30 00:40:00,
2013-05-29 19:45:00,66.4,62.4,29.57,ESE,108,4.0,10.0,87,3.74,,,0.57,Wunderground v.1.15,2013-05-30 00:45:00,
2013-05-29 19:55:00,64.5,62.4,29.52,ESE,121,1.0,10.0,93,0.16,,,0.68,Wunderground v.1.15,2013-05-30 00:55:00,
2013-05-29 20:00:00,64.4,62.3,29.54,WNW,290,1.0,10.0,93,0.12,,,0.69,Wunderground v.1.15,2013-05-30 01:00:00,
2013-05-29 20:05:00,64.3,62.2,29.54,South,179,2.0,10.0,93,0.06,,,0.69,Wunderground v.1.15,2013-05-30 01:05:00,
2013-05-29 20:10:00,64.3,61.6,29.52,SE,146,2.0,10.0,91,0.04,,,0.69,Wunderground v.1.15,2013-05-30 01:10:00,
2013-05-29 20:15:00,64.5,62.1,29.53,SE,145,1.0,10.0,92,0.00,,,0.69,Wunderground v.1.15,2013-05-30 01:15:00,
2013-05-29 20:20:00,64.4,62.0,29.54,SE,142,0.0,10.0,92,0.00,,,0.70,Wunderground v.1.15,2013-05-30 01:20:00,
2013-05-29 20:25:00,64.4,62.3,29.54,SE,142,0.0,10.0,93,0.00,,,0.70,Wunderground v.1.15,2013-05-30 01:25:00,
2013-05-29 20:35:00,64.3,62.2,29.55,SE,142,1.0,10.0,93,0.10,,,0.72,Wunderground v.1.15,2013-05-30 01:35:00,
2013-05-29 20:40:00,64.4,62.3,29.54,WNW,294,1.0,1.0,93,0.15,,,0.73,Wunderground v.1.15,2013-05-30 01:40:00,
2013-05-29 20:45:00,64.3,62.2,29.54,ENE,65,1.0,10.0,93,0.08,,,0.74,Wunderground v.1.15,2013-05-30 01:45:00,
2013-05-29 20:50:00,64.3,62.2,29.55,ESE,120,0.0,10.0,93,0.08,,,0.74,Wunderground v.1.15,2013-05-30 01:50:00,
2013-05-29 20:55:00,64.3,62.2,29.56,SE,138,0.0,10.0,93,0.07,,,0.75,Wunderground v.1.15,2013-05-30 01:55:00,
2013-05-29 21:00:00,64.4,62.3,29.54,SE,131,0.0,10.0,93,0.07,,,0.75,Wunderground v.1.15,2013-05-30 02:00:00,
2013-05-29 21:10:00,64.5,62.7,29.54,East,98,1.0,10.0,94,0.07,,,0.77,Wunderground v.1.15,2013-05-30 02:10:00,
2013-05-29 21:15:00,64.6,62.8,29.53,SSE,149,2.0,10.0,94,0.07,,,0.77,Wunderground v.1.15,2013-05-30 02:15:00,
2013-05-29 21:25:00,64.8,63.0,29.55,ESE,122,2.0,10.0,94,0.04,,,0.77,Wunderground v.1.15,2013-05-30 02:25:00,
2013-05-29 21:30:00,64.8,63.0,29.55,SSE,152,3.0,10.0,94,0.00,,,0.77,Wunderground v.1.15,2013-05-30 02:30:00,
2013-05-29 21:35:00,64.9,62.8,29.56,ESE,113,3.0,10.0,93,0.00,,,0.78,Wunderground v.1.15,2013-05-30 02:35:00,
2013-05-29 21:40:00,64.9,62.8,29.57,ESE,103,3.0,10.0,93,0.00,,,0.78,Wunderground v.1.15,2013-05-30 02:40:00,
2013-05-29 21:45:00,64.9,62.5,29.57,SW,231,3.0,10.0,92,0.04,,,0.79,Wunderground v.1.15,2013-05-30 02:45:00,
2013-05-29 21:50:00,64.9,62.5,29.57,SSE,163,4.0,10.0,92,0.04,,,0.79,Wunderground v.1.15,2013-05-30 02:50:00,
2013-05-29 22:00:00,64.6,62.5,29.56,ENE,71,3.0,10.0,93,0.23,,,0.82,Wunderground v.1.15,2013-05-30 03:00:00,
2013-05-29 22:05:00,64.4,62.3,29.56,SSE,163,3.0,10.0,93,0.26,,,0.84,Wunderground v.1.15,2013-05-30 03:05:00,
2013-05-29 22:10:00,64.2,62.1,29.56,SE,132,3.0,3.0,93,0.15,,,0.85,Wunderground v.1.15,2013-05-30 03:10:00,
2013-05-29 22:15:00,64.1,62.3,29.55,SSE,158,3.0,5.0,94,0.17,,,0.87,Wunderground v.1.15,2013-05-30 03:15:00,
2013-05-29 22:20:00,63.9,62.1,29.55,ESE,103,3.0,10.0,94,0.17,,,0.88,Wunderground v.1.15,2013-05-30 03:20:00,
2013-05-29 22:25:00,63.7,61.9,29.54,South,183,2.0,10.0,94,0.14,,,0.90,Wunderground v.1.15,2013-05-30 03:25:00,
2013-05-29 22:35:00,63.5,61.7,29.53,SSE,163,2.0,10.0,94,0.06,,,0.90,Wunderground v.1.15,2013-05-30 03:35:00,
2013-05-29 22:40:00,63.4,61.9,29.53,SE,139,2.0,10.0,95,0.04,,,0.90,Wunderground v.1.15,2013-05-30 03:40:00,
2013-05-29 22:45:00,63.3,61.8,29.51,SE,125,2.0,10.0,95,0.00,,,0.91,Wunderground v.1.15,2013-05-30 03:45:00,
2013-05-29 22:55:00,63.2,61.7,29.50,SW,233,2.0,10.0,95,0.22,,,0.94,Wunderground v.1.15,2013-05-30 03:55:00,
2013-05-29 23:00:00,63.1,61.6,29.49,SE,125,2.0,10.0,95,0.17,,,0.96,Wunderground v.1.15,2013-05-30 04:00:00,
2013-05-29 23:05:00,63.0,61.5,29.51,SE,136,2.0,10.0,95,0.10,,,0.96,Wunderground v.1.15,2013-05-30 04:05:00,
2013-05-29 23:10:00,63.0,61.5,29.51,WSW,243,1.0,10.0,95,0.05,,,0.96,Wunderground v.1.15,2013-05-30 04:10:00,
2013-05-29 23:15:00,62.9,61.4,29.52,SSW,203,2.0,10.0,95,0.04,,,0.96,Wunderground v.1.15,2013-05-30 04:15:00,
2013-05-29 23:20:00,62.9,61.4,29.52,SSE,168,3.0,3.0,95,0.00,,,0.96,Wunderground v.1.15,2013-05-30 04:20:00,
2013-05-29 23:30:00,62.8,61.3,29.52,NNE,29,2.0,2.0,95,0.00,,,0.96,Wunderground v.1.15,2013-05-30 04:30:00,
2013-05-29 23:35:00,62.8,61.3,29.53,East,91,1.0,10.0,95,0.00,,,0.96,Wunderground v.1.15,2013-05-30 04:35:00,
2013-05-29 23:40:00,62.8,61.3,29.53,SE,126,1.0,10.0,95,0.00,,,0.96,Wunderground v.1.15,2013-05-30 04:40:00,
2013-05-29 23:50:00,62.8,61.3,29.51,ENE,61,1.0,10.0,95,0.00,,,0.96,Wunderground v.1.15,2013-05-30 04:50:00,
2013-05-29 23:55:00,62.7,61.2,29.52,NW,311,1.0,10.0,95,0.00,,,0.96,Wunderground v.1.15,2013-05-30 04:55:00,